Time;durP1;ratioP1;P1;durP2;ratioP2;P2;SDS_P1;SDS_P2;PMS_P1;PMS_P2;Temp;Humidity;BMP_temperature;BMP_pressure;BME280_temperature;BME280_humidity;BME280_pressure;Samples;Min_cycle;Max_cycle;Signal;HPM_P1;HPM_P2
2021/12/19 00:00:30;;;;;;;6.85;4.15;;;16.00;77.40;;;;;;1994273;28;20166;-75
2021/12/19 00:03:54;;;;;;;6.18;3.85;;;16.10;77.50;;;;;;1989095;28;20163;-75
2021/12/19 00:08:50;;;;;;;7.22;4.15;;;16.00;77.70;;;;;;1989108;28;20563;-74
2021/12/19 00:09:48;;;;;;;4.95;3.75;;;15.90;77.60;;;;;;1989230;28;20150;-74
2021/12/19 00:10:47;;;;;;;5.57;4.00;;;16.00;77.70;;;;;;1989115;28;20179;-74
2021/12/19 00:11:45;;;;;;;5.27;3.50;;;16.00;77.80;;;;;;1989023;28;20216;-74
2021/12/19 00:12:44;;;;;;;5.90;3.50;;;16.00;77.50;;;;;;1989083;28;20253;-74
2021/12/19 00:13:42;;;;;;;9.03;4.20;;;16.00;77.50;;;;;;1989049;28;20201;-74
2021/12/19 00:14:41;;;;;;;6.43;3.37;;;16.00;77.70;;;;;;1988928;28;20177;-74
2021/12/19 00:15:39;;;;;;;6.80;3.83;;;16.00;77.70;;;;;;1989208;28;20171;-75
2021/12/19 00:16:38;;;;;;;5.47;4.10;;;16.00;77.60;;;;;;1988887;28;20202;-74
2021/12/19 00:17:36;;;;;;;6.30;3.83;;;16.00;77.70;;;;;;1988919;28;20214;-74
2021/12/19 00:18:35;;;;;;;7.13;3.93;;;16.00;77.60;;;;;;1989063;28;20181;-74
2021/12/19 00:19:33;;;;;;;6.27;4.30;;;16.00;77.70;;;;;;1988990;28;20591;-74
2021/12/19 00:20:32;;;;;;;7.40;3.97;;;16.00;77.70;;;;;;1988940;28;20177;-74
2021/12/19 00:21:31;;;;;;;9.23;3.93;;;16.00;77.60;;;;;;1988938;28;20638;-74
2021/12/19 00:22:31;;;;;;;6.47;3.13;;;16.00;77.70;;;;;;1989017;28;20175;-74
2021/12/19 00:23:30;;;;;;;6.28;3.75;;;16.00;77.60;;;;;;1988301;28;20545;-74
2021/12/19 00:24:29;;;;;;;5.80;3.83;;;16.00;77.60;;;;;;1988335;28;20180;-74
2021/12/19 00:25:27;;;;;;;6.45;4.57;;;16.00;77.60;;;;;;1989011;28;20865;-74
2021/12/19 00:26:26;;;;;;;5.93;3.73;;;16.00;77.60;;;;;;1988878;28;20190;-74
2021/12/19 00:27:24;;;;;;;7.37;3.70;;;16.00;77.70;;;;;;1988953;28;20175;-75
2021/12/19 00:28:24;;;;;;;7.00;3.93;;;16.00;77.80;;;;;;1989046;28;20174;-74
2021/12/19 00:29:22;;;;;;;5.45;4.13;;;16.00;77.90;;;;;;1989052;28;20178;-75
2021/12/19 00:30:21;;;;;;;7.90;4.17;;;16.00;77.80;;;;;;1989018;28;20208;-75
2021/12/19 00:31:20;;;;;;;11.20;3.93;;;16.00;77.90;;;;;;1991467;28;20175;-74
2021/12/19 00:32:18;;;;;;;5.60;3.83;;;16.00;77.80;;;;;;1991604;28;20186;-75
2021/12/19 00:33:17;;;;;;;6.50;4.33;;;16.00;77.90;;;;;;1991619;28;20173;-75
2021/12/19 00:34:16;;;;;;;5.50;3.60;;;16.00;77.90;;;;;;1991458;28;20917;-75
2021/12/19 00:35:15;;;;;;;5.00;3.93;;;16.00;77.90;;;;;;1991413;28;20178;-73
2021/12/19 00:36:14;;;;;;;5.07;3.63;;;16.00;77.90;;;;;;1991498;28;20414;-74
2021/12/19 00:37:13;;;;;;;5.87;3.40;;;16.00;77.80;;;;;;1991445;28;20202;-74
2021/12/19 00:38:11;;;;;;;7.60;4.30;;;16.00;77.90;;;;;;1991536;28;20437;-74
2021/12/19 00:39:10;;;;;;;6.43;3.90;;;16.00;77.70;;;;;;1991460;28;20634;-74
2021/12/19 00:40:11;;;;;;;6.67;3.90;;;16.00;77.80;;;;;;1991494;28;20237;-74
2021/12/19 00:41:09;;;;;;;6.50;3.95;;;16.00;77.60;;;;;;1990738;28;20418;-74
2021/12/19 00:42:08;;;;;;;4.27;3.30;;;16.00;77.80;;;;;;1990924;28;20213;-74
2021/12/19 00:43:10;;;;;;;5.47;3.70;;;16.00;77.70;;;;;;1991421;28;20556;-74
2021/12/19 00:44:14;;;;;;;5.72;3.30;;;16.00;77.90;;;;;;1990807;28;20514;-74
2021/12/19 00:45:47;;;;;;;6.18;3.90;;;16.00;77.90;;;;;;1991245;28;20174;-73
2021/12/19 00:46:50;;;;;;;6.25;3.88;;;16.00;77.90;;;;;;1990195;28;20301;-74
2021/12/19 00:47:48;;;;;;;5.22;3.42;;;16.00;78.00;;;;;;1990964;28;20216;-74
2021/12/19 00:48:52;;;;;;;7.70;4.60;;;16.00;78.00;;;;;;1990907;28;20727;-74
2021/12/19 00:49:51;;;;;;;4.32;2.90;;;16.00;78.00;;;;;;1991550;28;20166;-74
2021/12/19 00:50:49;;;;;;;4.73;3.80;;;16.00;77.80;;;;;;1991697;28;20171;-74
2021/12/19 00:51:48;;;;;;;5.37;3.93;;;16.00;77.80;;;;;;1991591;28;20178;-74
2021/12/19 00:52:47;;;;;;;4.80;3.87;;;16.00;78.00;;;;;;1991781;28;20167;-75
2021/12/19 00:53:46;;;;;;;6.50;3.00;;;16.00;78.00;;;;;;1991525;28;20312;-75
2021/12/19 00:54:44;;;;;;;5.27;3.80;;;16.00;78.10;;;;;;1991465;28;20216;-74
2021/12/19 00:55:43;;;;;;;6.30;3.93;;;16.00;77.80;;;;;;1991412;28;20410;-75
2021/12/19 00:56:43;;;;;;;5.90;3.60;;;16.00;77.80;;;;;;1991357;28;20186;-75
2021/12/19 00:57:42;;;;;;;7.45;4.10;;;16.00;77.90;;;;;;1991529;28;20166;-75
2021/12/19 00:58:42;;;;;;;4.13;3.13;;;16.00;77.90;;;;;;1991385;28;20186;-74
2021/12/19 00:59:41;;;;;;;6.80;4.18;;;16.00;78.00;;;;;;1991469;28;20428;-74
2021/12/19 01:00:40;;;;;;;7.73;3.90;;;16.00;78.00;;;;;;1991389;28;20179;-74
2021/12/19 01:01:38;;;;;;;9.03;4.27;;;16.00;77.90;;;;;;1991442;28;20174;-74
2021/12/19 01:02:38;;;;;;;7.70;4.27;;;16.00;77.90;;;;;;1991489;28;20197;-74
2021/12/19 01:03:37;;;;;;;5.80;3.70;;;16.00;78.00;;;;;;1991507;28;20460;-74
2021/12/19 01:04:36;;;;;;;12.45;3.83;;;16.00;77.90;;;;;;1991426;28;20561;-74
2021/12/19 01:05:39;;;;;;;5.33;3.67;;;16.00;78.00;;;;;;1991494;28;20201;-74
2021/12/19 01:06:39;;;;;;;6.13;3.97;;;16.00;77.90;;;;;;1990742;28;20289;-74
2021/12/19 01:07:39;;;;;;;9.15;3.88;;;16.00;77.90;;;;;;1990785;28;20174;-74
2021/12/19 01:08:38;;;;;;;8.43;4.55;;;16.00;78.00;;;;;;1990812;28;20584;-74
2021/12/19 01:09:36;;;;;;;7.50;3.70;;;16.00;78.00;;;;;;1990888;28;20249;-74
2021/12/19 01:10:35;;;;;;;4.13;2.87;;;16.00;78.00;;;;;;1991539;28;20657;-74
2021/12/19 01:11:34;;;;;;;5.97;3.60;;;16.00;77.80;;;;;;1991515;28;20171;-74
2021/12/19 01:12:36;;;;;;;7.07;4.20;;;16.00;78.00;;;;;;1991658;28;20205;-74
2021/12/19 01:13:35;;;;;;;6.70;3.65;;;16.00;77.80;;;;;;1991703;28;20237;-74
2021/12/19 01:14:33;;;;;;;5.73;3.43;;;16.00;78.00;;;;;;1991568;28;20194;-74
2021/12/19 01:15:33;;;;;;;5.47;3.80;;;16.00;77.80;;;;;;1991493;28;20201;-74
2021/12/19 01:16:31;;;;;;;7.18;3.95;;;16.00;77.80;;;;;;1991433;28;20186;-74
2021/12/19 01:17:30;;;;;;;9.10;3.90;;;16.00;78.00;;;;;;1991615;28;20708;-74
2021/12/19 01:18:29;;;;;;;5.47;3.90;;;16.00;78.10;;;;;;1991348;28;20174;-74
2021/12/19 01:19:27;;;;;;;8.10;4.27;;;15.90;77.80;;;;;;1991492;28;20445;-74
2021/12/19 01:20:28;;;;;;;6.67;3.37;;;16.00;78.20;;;;;;1991521;28;20208;-75
2021/12/19 01:21:27;;;;;;;5.57;3.30;;;16.00;78.00;;;;;;1991398;28;20608;-74
2021/12/19 01:22:25;;;;;;;5.80;3.80;;;16.00;78.20;;;;;;1991573;28;20225;-74
2021/12/19 01:23:24;;;;;;;5.73;3.70;;;15.90;77.90;;;;;;1991414;28;20210;-74
2021/12/19 01:24:22;;;;;;;5.03;4.00;;;16.00;78.10;;;;;;1991432;28;20182;-74
2021/12/19 01:25:21;;;;;;;5.50;3.90;;;16.00;78.20;;;;;;1991509;28;20175;-74
2021/12/19 01:26:20;;;;;;;9.53;4.30;;;16.10;78.30;;;;;;1991326;28;20194;-75
2021/12/19 01:27:18;;;;;;;5.77;3.40;;;16.00;78.20;;;;;;1991516;28;20623;-74
2021/12/19 01:28:18;;;;;;;6.53;3.60;;;16.00;78.10;;;;;;1990760;28;20205;-74
2021/12/19 01:29:16;;;;;;;6.32;3.95;;;16.00;78.20;;;;;;1983220;29;20179;-73
2021/12/19 01:30:16;;;;;;;10.07;4.50;;;16.00;78.20;;;;;;1990384;28;20260;-75
2021/12/19 01:31:14;;;;;;;8.23;4.47;;;16.00;78.20;;;;;;1991208;28;20232;-75
2021/12/19 01:32:13;;;;;;;5.63;3.83;;;16.00;78.20;;;;;;1991466;28;20668;-75
2021/12/19 01:33:12;;;;;;;4.33;3.40;;;16.00;78.20;;;;;;1991504;28;20178;-74
2021/12/19 01:34:12;;;;;;;5.40;3.50;;;16.00;78.10;;;;;;1991461;28;20655;-73
2021/12/19 01:35:13;;;;;;;6.72;4.15;;;16.00;78.30;;;;;;1991651;28;20626;-74
2021/12/19 01:36:12;;;;;;;7.07;4.30;;;16.00;78.20;;;;;;1991258;28;20192;-74
2021/12/19 01:37:10;;;;;;;7.60;4.03;;;16.00;78.10;;;;;;1990538;28;20249;-74
2021/12/19 01:38:09;;;;;;;8.67;4.30;;;16.00;78.10;;;;;;1982904;29;20589;-74
2021/12/19 01:39:09;;;;;;;7.77;3.90;;;16.00;78.20;;;;;;1990424;28;20175;-74
2021/12/19 01:40:10;;;;;;;7.55;4.20;;;16.00;78.20;;;;;;1991442;28;20186;-74
2021/12/19 01:41:08;;;;;;;5.68;3.75;;;16.00;78.10;;;;;;1991322;28;20584;-74
2021/12/19 01:42:11;;;;;;;6.60;3.50;;;16.00;78.30;;;;;;1990466;28;20201;-75
2021/12/19 01:43:10;;;;;;;5.15;3.78;;;16.00;78.20;;;;;;1989886;28;20171;-75
2021/12/19 01:44:09;;;;;;;6.72;3.90;;;16.00;78.20;;;;;;1990194;28;20193;-74
2021/12/19 01:45:13;;;;;;;6.55;3.78;;;16.00;78.30;;;;;;1989444;28;20181;-74
2021/12/19 01:46:12;;;;;;;7.97;4.53;;;16.00;78.30;;;;;;1989670;28;20167;-74
2021/12/19 01:47:11;;;;;;;5.90;3.83;;;16.00;78.40;;;;;;1990088;28;20197;-74
2021/12/19 01:48:11;;;;;;;6.53;4.10;;;15.90;78.10;;;;;;1990081;28;20273;-74
2021/12/19 01:49:11;;;;;;;6.53;4.28;;;16.00;78.30;;;;;;1990051;28;20171;-74
2021/12/19 01:50:10;;;;;;;6.93;4.28;;;16.00;78.40;;;;;;1989828;28;20225;-75
2021/12/19 01:51:08;;;;;;;6.40;3.37;;;16.00;78.40;;;;;;1989520;28;20186;-75
2021/12/19 01:52:07;;;;;;;8.00;4.57;;;16.00;78.30;;;;;;1989718;28;20437;-74
2021/12/19 01:53:08;;;;;;;10.00;4.67;;;16.00;78.30;;;;;;1990089;28;20495;-74
2021/12/19 01:54:07;;;;;;;8.35;3.67;;;15.90;78.10;;;;;;1990094;28;20269;-74
2021/12/19 01:55:06;;;;;;;7.47;4.33;;;16.00;78.20;;;;;;1990046;28;20178;-74
2021/12/19 01:56:07;;;;;;;7.85;4.55;;;16.00;78.50;;;;;;1990043;28;20186;-74
2021/12/19 01:57:05;;;;;;;5.95;4.13;;;15.90;78.20;;;;;;1990021;28;20289;-74
2021/12/19 01:58:04;;;;;;;6.87;4.30;;;16.00;78.50;;;;;;1990004;28;20642;-75
2021/12/19 01:59:04;;;;;;;6.05;3.67;;;16.00;78.50;;;;;;1990215;28;20202;-75
2021/12/19 02:00:07;;;;;;;6.07;4.43;;;16.00;78.30;;;;;;1989964;28;20540;-75
2021/12/19 02:01:06;;;;;;;5.97;3.90;;;15.90;78.20;;;;;;1989297;28;20274;-74
2021/12/19 02:02:05;;;;;;;5.57;4.05;;;15.90;78.40;;;;;;1989523;28;20178;-74
2021/12/19 02:03:07;;;;;;;6.03;3.50;;;16.20;78.40;;;;;;1989990;28;20179;-74
2021/12/19 02:04:05;;;;;;;8.05;5.30;;;16.20;78.80;;;;;;1989891;28;20249;-75
2021/12/19 02:05:04;;;;;;;9.70;4.63;;;15.90;78.40;;;;;;1990067;28;20237;-75
2021/12/19 02:06:03;;;;;;;7.20;4.57;;;15.90;78.40;;;;;;1989835;28;20209;-74
2021/12/19 02:07:02;;;;;;;6.87;4.37;;;16.00;78.40;;;;;;1989934;28;20177;-75
2021/12/19 02:08:02;;;;;;;7.43;3.83;;;16.00;78.60;;;;;;1989881;28;20215;-75
2021/12/19 02:09:05;;;;;;;10.38;4.63;;;15.90;78.30;;;;;;1989859;28;20190;-74
2021/12/19 02:10:04;;;;;;;10.88;4.85;;;15.90;78.50;;;;;;1990036;28;20278;-74
2021/12/19 02:11:03;;;;;;;7.10;4.30;;;15.90;78.50;;;;;;1990118;28;20313;-74
2021/12/19 02:12:03;;;;;;;8.23;4.53;;;16.00;78.60;;;;;;1989868;28;20408;-75
2021/12/19 02:13:04;;;;;;;9.90;5.50;;;16.00;78.50;;;;;;1989953;28;20282;-74
2021/12/19 02:14:04;;;;;;;8.70;4.80;;;15.90;78.40;;;;;;1989854;28;20639;-74
2021/12/19 02:15:04;;;;;;;7.22;4.78;;;15.90;78.50;;;;;;1989276;28;20171;-73
2021/12/19 02:16:02;;;;;;;11.15;4.30;;;15.90;78.50;;;;;;1989430;28;20662;-73
2021/12/19 02:17:01;;;;;;;7.17;4.50;;;15.90;78.50;;;;;;1989843;28;20174;-73
2021/12/19 02:18:03;;;;;;;12.07;5.60;;;15.90;78.50;;;;;;1989280;28;20268;-72
2021/12/19 02:19:04;;;;;;;8.90;4.60;;;15.90;78.50;;;;;;1989249;28;20269;-73
2021/12/19 02:20:03;;;;;;;8.45;4.20;;;15.90;78.60;;;;;;1989349;28;20182;-74
2021/12/19 02:21:02;;;;;;;8.48;4.45;;;15.90;78.60;;;;;;1981676;29;20670;-74
2021/12/19 02:22:00;;;;;;;6.47;4.47;;;15.90;79.30;;;;;;1988974;28;20171;-74
2021/12/19 02:22:59;;;;;;;7.43;4.43;;;15.90;79.20;;;;;;1989781;28;20170;-73
2021/12/19 02:24:01;;;;;;;7.82;4.88;;;16.00;78.60;;;;;;1990234;28;20676;-74
2021/12/19 02:25:00;;;;;;;7.57;5.30;;;16.00;78.60;;;;;;1989810;28;20192;-73
2021/12/19 02:25:58;;;;;;;9.20;5.10;;;15.90;78.60;;;;;;1989787;28;20557;-74
2021/12/19 02:26:57;;;;;;;10.10;4.93;;;15.90;78.60;;;;;;1989816;28;20170;-73
2021/12/19 02:27:56;;;;;;;8.00;4.40;;;15.90;78.70;;;;;;1990334;28;20262;-74
2021/12/19 02:28:54;;;;;;;9.03;4.60;;;16.00;78.80;;;;;;1990021;28;20265;-74
2021/12/19 02:29:53;;;;;;;11.00;4.60;;;16.00;78.70;;;;;;1989697;28;20181;-73
2021/12/19 02:30:51;;;;;;;8.53;5.10;;;16.00;78.80;;;;;;1989537;28;20249;-74
2021/12/19 02:31:50;;;;;;;9.83;5.70;;;15.90;78.50;;;;;;1989713;28;20206;-73
2021/12/19 02:32:48;;;;;;;9.90;4.90;;;15.90;78.60;;;;;;1989845;28;20413;-74
2021/12/19 02:34:02;;;;;;;8.60;5.47;;;16.00;78.80;;;;;;1989901;28;20622;-74
2021/12/19 02:35:05;;;;;;;11.13;5.50;;;15.90;78.90;;;;;;1989435;28;20185;-74
2021/12/19 02:36:21;;;;;;;9.85;5.85;;;15.90;78.70;;;;;;1989316;28;20159;-74
2021/12/19 02:40:04;;;;;;;10.73;5.85;;;15.90;78.70;;;;;;1990199;28;20552;-74
2021/12/19 02:48:25;;;;;;;10.13;5.57;;;15.90;79.20;;;;;;1993662;28;20638;-74
2021/12/19 02:49:23;;;;;;;10.80;5.00;;;15.90;79.00;;;;;;1994003;28;20159;-73
2021/12/19 02:50:24;;;;;;;9.17;4.80;;;15.90;78.90;;;;;;1993491;28;20181;-74
2021/12/19 02:51:24;;;;;;;7.05;5.30;;;15.90;79.00;;;;;;1990027;28;20182;-73
2021/12/19 02:52:23;;;;;;;9.75;5.13;;;15.90;79.10;;;;;;1989556;28;20182;-74
2021/12/19 02:53:37;;;;;;;11.70;5.38;;;15.90;79.00;;;;;;1989541;28;20182;-74
2021/12/19 02:54:35;;;;;;;8.00;5.20;;;15.90;79.10;;;;;;1989600;28;20171;-74
2021/12/19 02:55:34;;;;;;;9.77;4.83;;;15.90;79.00;;;;;;1989521;28;20167;-74
2021/12/19 02:56:32;;;;;;;7.90;5.17;;;15.90;79.00;;;;;;1989447;28;20209;-73
2021/12/19 02:57:31;;;;;;;11.40;5.70;;;15.90;79.00;;;;;;1989532;28;20352;-74
2021/12/19 02:58:30;;;;;;;12.07;5.73;;;15.90;79.10;;;;;;1989738;28;20174;-74
2021/12/19 02:59:31;;;;;;;8.52;4.47;;;15.90;79.00;;;;;;1989610;28;20630;-74
2021/12/19 03:00:30;;;;;;;10.43;5.35;;;15.90;79.00;;;;;;1989668;28;20182;-74
2021/12/19 03:01:29;;;;;;;10.03;6.27;;;15.90;79.10;;;;;;1989518;28;20233;-74
2021/12/19 03:02:28;;;;;;;10.07;4.90;;;15.90;79.00;;;;;;1989652;28;20170;-74
2021/12/19 03:03:26;;;;;;;10.52;5.80;;;15.90;79.10;;;;;;1989515;28;20171;-74
2021/12/19 03:04:25;;;;;;;14.40;5.50;;;15.90;79.10;;;;;;1989707;28;20171;-74
2021/12/19 03:05:24;;;;;;;9.60;5.53;;;16.00;79.00;;;;;;1989487;28;20224;-74
2021/12/19 03:06:22;;;;;;;9.05;5.45;;;16.00;79.00;;;;;;1989557;28;20582;-74
2021/12/19 03:07:21;;;;;;;11.70;6.03;;;15.90;79.10;;;;;;1989617;28;20185;-73
2021/12/19 03:08:20;;;;;;;7.93;5.40;;;15.90;79.20;;;;;;1989652;28;20178;-73
2021/12/19 03:09:41;;;;;;;8.53;4.90;;;15.90;79.20;;;;;;1989463;28;20522;-73
2021/12/19 03:18:01;;;;;;;8.27;5.50;;;15.80;79.30;;;;;;1989498;28;20170;-73
2021/12/19 03:18:59;;;;;;;9.55;5.53;;;15.90;79.40;;;;;;1989391;28;20170;-73
2021/12/19 03:20:00;;;;;;;12.73;6.10;;;15.90;79.50;;;;;;1989447;28;20580;-73
2021/12/19 03:20:59;;;;;;;11.38;5.25;;;15.90;79.50;;;;;;1989485;28;20182;-73
2021/12/19 03:21:57;;;;;;;10.07;5.17;;;15.90;79.40;;;;;;1989454;28;20179;-74
2021/12/19 03:22:58;;;;;;;11.10;6.03;;;15.90;79.50;;;;;;1988796;28;20573;-73
2021/12/19 03:23:56;;;;;;;9.65;4.57;;;15.90;79.40;;;;;;1988873;28;20265;-73
2021/12/19 03:24:55;;;;;;;9.17;5.17;;;15.90;79.30;;;;;;1988892;28;20192;-73
2021/12/19 03:25:53;;;;;;;9.77;5.27;;;15.90;79.40;;;;;;1988160;28;20182;-75
2021/12/19 03:26:52;;;;;;;9.70;5.57;;;15.90;79.40;;;;;;1988964;28;20229;-74
2021/12/19 03:27:51;;;;;;;10.43;5.50;;;15.90;79.50;;;;;;1989543;28;20213;-74
2021/12/19 03:28:49;;;;;;;7.37;4.97;;;15.90;79.50;;;;;;1989385;28;20266;-74
2021/12/19 03:29:48;;;;;;;9.93;5.47;;;15.90;79.40;;;;;;1989363;28;20525;-74
2021/12/19 03:30:48;;;;;;;9.73;5.67;;;15.90;79.40;;;;;;1989299;28;20218;-73
2021/12/19 03:31:46;;;;;;;10.40;4.90;;;15.90;79.40;;;;;;1989456;28;20728;-73
2021/12/19 03:32:45;;;;;;;7.27;5.33;;;15.90;79.40;;;;;;1989370;28;20174;-74
2021/12/19 03:33:43;;;;;;;8.63;5.70;;;15.90;79.40;;;;;;1988630;28;20301;-74
2021/12/19 03:34:42;;;;;;;9.30;4.97;;;15.90;79.60;;;;;;1988730;28;20221;-74
2021/12/19 03:35:41;;;;;;;12.10;6.20;;;15.90;79.40;;;;;;1989181;28;20170;-74
2021/12/19 03:36:40;;;;;;;8.90;5.13;;;15.90;79.40;;;;;;1989209;28;20297;-73
2021/12/19 03:37:39;;;;;;;9.67;5.90;;;15.90;79.50;;;;;;1989222;28;20210;-74
2021/12/19 03:38:41;;;;;;;9.60;5.17;;;15.90;79.50;;;;;;1989430;28;20173;-74
2021/12/19 03:39:56;;;;;;;9.23;5.85;;;15.90;79.60;;;;;;1988680;28;20274;-74
2021/12/19 03:41:12;;;;;;;9.52;5.07;;;15.90;79.60;;;;;;1989109;28;20161;-74
2021/12/19 03:42:12;;;;;;;6.50;4.95;;;15.90;79.70;;;;;;1989487;28;20158;-74
2021/12/19 03:43:17;;;;;;;9.88;5.40;;;15.90;79.70;;;;;;1989264;28;20166;-74
2021/12/19 03:44:15;;;;;;;8.75;4.80;;;15.90;79.70;;;;;;1989350;28;20207;-74
2021/12/19 03:45:17;;;;;;;8.40;4.90;;;15.90;79.70;;;;;;1989388;28;20182;-74
2021/12/19 03:46:16;;;;;;;7.80;4.68;;;15.90;79.70;;;;;;1989233;28;20195;-73
2021/12/19 03:47:15;;;;;;;6.40;4.57;;;15.90;79.60;;;;;;1989289;28;20212;-74
2021/12/19 03:48:16;;;;;;;7.17;4.70;;;15.90;79.70;;;;;;1989331;28;20541;-73
2021/12/19 03:49:18;;;;;;;5.53;4.70;;;15.90;79.70;;;;;;1989372;28;20202;-74
2021/12/19 03:50:22;;;;;;;10.55;5.97;;;15.90;79.60;;;;;;1989333;28;20179;-74
2021/12/19 03:51:20;;;;;;;10.75;4.72;;;16.00;79.80;;;;;;1989390;28;20250;-73
2021/12/19 03:52:19;;;;;;;11.37;5.63;;;15.90;79.80;;;;;;1988772;28;20186;-74
2021/12/19 03:53:21;;;;;;;10.10;5.83;;;15.90;79.60;;;;;;1988661;28;20249;-74
2021/12/19 03:54:19;;;;;;;9.73;5.38;;;15.90;79.50;;;;;;1989085;28;20167;-74
2021/12/19 03:55:18;;;;;;;8.00;4.97;;;15.90;79.70;;;;;;1989278;28;20237;-74
2021/12/19 03:56:16;;;;;;;9.90;5.03;;;15.90;79.80;;;;;;1989169;28;20241;-74
2021/12/19 03:57:16;;;;;;;6.57;4.67;;;15.90;79.60;;;;;;1989196;28;20198;-74
2021/12/19 03:58:15;;;;;;;8.57;4.85;;;15.90;79.80;;;;;;1989076;28;20317;-74
2021/12/19 03:59:13;;;;;;;8.63;5.00;;;15.90;79.80;;;;;;1989339;28;20225;-74
2021/12/19 04:00:15;;;;;;;8.57;5.27;;;15.80;79.70;;;;;;1989317;28;20198;-74
2021/12/19 04:01:14;;;;;;;11.20;5.50;;;15.90;79.90;;;;;;1989887;28;20178;-74
2021/12/19 04:02:13;;;;;;;8.40;4.60;;;15.90;79.80;;;;;;1990485;28;20178;-74
2021/12/19 04:03:18;;;;;;;7.17;4.90;;;15.90;79.80;;;;;;1990050;28;20213;-74
2021/12/19 04:04:16;;;;;;;9.15;5.40;;;15.90;79.60;;;;;;1989975;28;20170;-74
2021/12/19 04:05:15;;;;;;;8.30;4.80;;;15.90;79.70;;;;;;1989900;28;20174;-74
2021/12/19 04:06:14;;;;;;;8.17;4.60;;;15.90;79.90;;;;;;1990162;28;20642;-74
2021/12/19 04:07:12;;;;;;;7.38;4.57;;;15.90;79.70;;;;;;1990422;28;20261;-74
2021/12/19 04:08:12;;;;;;;9.30;4.80;;;15.90;80.00;;;;;;1989465;28;20673;-74
2021/12/19 04:09:11;;;;;;;9.00;4.47;;;16.10;80.00;;;;;;1989492;28;20178;-74
2021/12/19 04:10:09;;;;;;;11.50;5.47;;;15.90;79.80;;;;;;1989624;28;20179;-74
2021/12/19 04:11:08;;;;;;;8.50;4.80;;;15.90;80.00;;;;;;1989453;28;20214;-73
2021/12/19 04:12:08;;;;;;;6.63;4.30;;;15.90;79.80;;;;;;1989425;28;20229;-73
2021/12/19 04:13:07;;;;;;;14.18;5.70;;;15.90;79.90;;;;;;1988649;28;20178;-74
2021/12/19 04:14:06;;;;;;;9.60;4.80;;;15.90;80.00;;;;;;1980756;29;20183;-74
2021/12/19 04:15:05;;;;;;;8.13;4.77;;;15.90;80.00;;;;;;1988415;28;20457;-73
2021/12/19 04:16:04;;;;;;;6.70;4.10;;;15.90;80.00;;;;;;1989677;28;20639;-74
2021/12/19 04:17:03;;;;;;;8.20;4.87;;;15.90;80.00;;;;;;1994948;28;20178;-74
2021/12/19 04:18:01;;;;;;;8.53;5.10;;;15.90;79.80;;;;;;1996455;28;20175;-73
2021/12/19 04:19:00;;;;;;;8.20;4.70;;;15.90;80.10;;;;;;1997255;28;20525;-73
2021/12/19 04:19:58;;;;;;;8.33;4.40;;;15.90;79.90;;;;;;1997124;28;20182;-73
2021/12/19 04:20:57;;;;;;;8.47;4.83;;;15.90;80.10;;;;;;1997190;28;20163;-72
2021/12/19 04:21:59;;;;;;;10.63;4.63;;;15.90;80.00;;;;;;1997479;28;20226;-72
2021/12/19 04:22:57;;;;;;;9.60;5.00;;;16.10;80.20;;;;;;1997019;28;20174;-74
2021/12/19 04:23:56;;;;;;;7.70;4.60;;;16.10;80.30;;;;;;1996847;28;20214;-74
2021/12/19 04:24:54;;;;;;;8.20;5.00;;;15.90;80.10;;;;;;1997251;28;20190;-74
2021/12/19 04:25:53;;;;;;;9.80;4.80;;;15.90;80.10;;;;;;1997200;28;20201;-74
2021/12/19 04:26:52;;;;;;;8.37;4.13;;;15.90;80.20;;;;;;1997709;28;20388;-74
2021/12/19 04:27:51;;;;;;;9.13;5.00;;;15.90;80.20;;;;;;1997518;28;20193;-73
2021/12/19 04:28:49;;;;;;;8.17;5.03;;;15.90;80.20;;;;;;1997505;28;20222;-73
2021/12/19 04:29:50;;;;;;;9.87;4.70;;;15.90;80.20;;;;;;1997434;28;20178;-73
2021/12/19 04:30:48;;;;;;;7.53;4.20;;;15.90;80.20;;;;;;1997119;28;20226;-73
2021/12/19 04:31:47;;;;;;;7.97;4.80;;;15.90;80.20;;;;;;1997595;28;20201;-73
2021/12/19 04:32:55;;;;;;;8.77;4.97;;;15.90;80.40;;;;;;1997453;28;20167;-73
2021/12/19 04:33:55;;;;;;;8.57;4.65;;;15.90;80.20;;;;;;1994101;28;20618;-74
2021/12/19 04:34:53;;;;;;;6.45;4.30;;;15.80;80.20;;;;;;1989148;28;20195;-74
2021/12/19 04:35:58;;;;;;;9.50;5.10;;;15.90;80.40;;;;;;1989168;28;20170;-74
2021/12/19 04:37:04;;;;;;;6.22;3.83;;;15.80;80.30;;;;;;1989079;28;20158;-75
2021/12/19 04:39:23;;;;;;;7.18;4.18;;;15.80;80.30;;;;;;1988665;28;20163;-74
2021/12/19 04:40:27;;;;;;;8.93;4.45;;;15.90;80.20;;;;;;1988988;28;20246;-74
2021/12/19 04:41:50;;;;;;;8.52;4.55;;;15.90;80.40;;;;;;1988536;28;20532;-74
2021/12/19 04:52:53;;;;;;;8.20;4.25;;;15.80;80.80;;;;;;1989751;28;20182;-74
2021/12/19 04:54:02;;;;;;;9.68;4.72;;;15.80;80.80;;;;;;1989176;28;20197;-74
2021/12/19 05:00:34;;;;;;;7.22;4.40;;;15.80;81.00;;;;;;1988956;28;20221;-74
2021/12/19 05:01:19;;;;;;;7.72;4.55;;;15.80;81.00;;;;;;1984280;28;20185;-74
2021/12/19 05:06:06;;;;;;;7.68;4.30;;;15.80;80.90;;;;;;1990021;28;20215;-75
2021/12/19 05:14:54;;;;;;;8.43;4.30;;;15.80;81.20;;;;;;1994762;28;20224;-75
2021/12/19 05:15:53;;;;;;;7.57;4.00;;;15.80;81.10;;;;;;1994817;28;20159;-74
2021/12/19 05:16:52;;;;;;;5.10;3.60;;;15.80;81.30;;;;;;1993910;28;20198;-74
2021/12/19 05:17:53;;;;;;;6.70;3.80;;;15.80;81.30;;;;;;1994446;28;20562;-75
2021/12/19 05:18:54;;;;;;;7.85;5.30;;;15.80;81.30;;;;;;1987052;29;20187;-74
2021/12/19 05:21:10;;;;;;;8.93;5.05;;;15.90;81.30;;;;;;1996708;28;20159;-74
2021/12/19 05:22:08;;;;;;;5.40;3.78;;;15.60;80.90;;;;;;1997217;28;20344;-74
2021/12/19 05:23:20;;;;;;;10.27;5.03;;;15.90;81.30;;;;;;1996579;28;20390;-74
2021/12/19 05:24:42;;;;;;;5.25;3.63;;;15.90;81.40;;;;;;1996172;28;20220;-75
2021/12/19 05:25:38;;;;;;;5.68;3.47;;;15.80;81.20;;;;;;1997138;28;20190;-74
2021/12/19 05:26:42;;;;;;;5.77;4.03;;;15.80;81.40;;;;;;1996524;28;20198;-73
2021/12/19 05:27:44;;;;;;;4.85;3.80;;;15.80;81.60;;;;;;1989060;28;20160;-73
2021/12/19 05:28:43;;;;;;;5.90;3.60;;;15.80;81.50;;;;;;1994103;28;20178;-73
2021/12/19 05:29:42;;;;;;;8.13;4.20;;;16.10;81.70;;;;;;1995344;28;20174;-73
2021/12/19 05:30:40;;;;;;;13.13;4.87;;;15.90;81.50;;;;;;1996288;28;20163;-73
2021/12/19 05:31:40;;;;;;;8.43;3.90;;;15.80;81.60;;;;;;1993867;28;20166;-73
2021/12/19 05:32:44;;;;;;;6.80;3.97;;;15.80;81.60;;;;;;1992376;28;20210;-73
2021/12/19 05:33:42;;;;;;;4.70;3.25;;;15.90;81.60;;;;;;1990195;28;20182;-73
2021/12/19 05:34:41;;;;;;;6.23;4.13;;;15.80;81.60;;;;;;1982419;29;20453;-73
2021/12/19 05:45:57;;;;;;;5.05;3.45;;;15.80;82.00;;;;;;1990088;28;20262;-74
2021/12/19 05:46:57;;;;;;;7.07;4.17;;;15.80;81.80;;;;;;1990203;28;20179;-74
2021/12/19 05:47:57;;;;;;;6.00;4.25;;;15.80;81.80;;;;;;1989462;28;20635;-74
2021/12/19 05:48:58;;;;;;;8.82;3.72;;;15.90;81.90;;;;;;1989494;28;20181;-74
2021/12/19 05:49:56;;;;;;;6.40;3.90;;;15.80;82.00;;;;;;1990021;28;20178;-74
2021/12/19 05:50:55;;;;;;;6.43;4.13;;;15.90;81.90;;;;;;1990247;28;20202;-74
2021/12/19 05:51:54;;;;;;;5.67;3.50;;;15.90;81.90;;;;;;1989902;28;20178;-73
2021/12/19 05:52:53;;;;;;;4.43;3.42;;;15.90;82.10;;;;;;1989997;28;20178;-73
2021/12/19 05:53:52;;;;;;;9.48;3.90;;;15.90;82.20;;;;;;1989938;28;20175;-73
2021/12/19 05:54:50;;;;;;;7.30;4.10;;;15.90;82.20;;;;;;1990003;28;20183;-73
2021/12/19 05:55:49;;;;;;;7.80;3.77;;;16.10;82.50;;;;;;1990017;28;20580;-74
2021/12/19 05:56:48;;;;;;;9.70;4.87;;;15.90;82.30;;;;;;1989944;28;20694;-74
2021/12/19 05:57:48;;;;;;;3.97;3.05;;;15.80;82.10;;;;;;1989909;28;20217;-74
2021/12/19 05:58:47;;;;;;;5.32;3.60;;;15.90;82.10;;;;;;1989319;28;20181;-74
2021/12/19 05:59:46;;;;;;;5.45;3.72;;;15.90;82.30;;;;;;1989376;28;20170;-74
2021/12/19 06:00:44;;;;;;;5.70;3.53;;;15.90;82.30;;;;;;1989333;28;20171;-74
2021/12/19 06:01:45;;;;;;;5.87;4.03;;;15.90;82.20;;;;;;1989863;28;20537;-74
2021/12/19 06:02:45;;;;;;;6.53;3.50;;;15.80;82.20;;;;;;1989384;28;20233;-73
2021/12/19 06:03:43;;;;;;;6.55;3.95;;;15.80;82.20;;;;;;1989592;28;20174;-73
2021/12/19 06:04:42;;;;;;;7.27;3.90;;;15.80;82.40;;;;;;1989036;28;20311;-73
2021/12/19 06:05:41;;;;;;;7.17;3.60;;;15.80;82.30;;;;;;1989530;28;20167;-74
2021/12/19 06:06:39;;;;;;;4.80;3.40;;;15.80;82.40;;;;;;1989863;28;20456;-74
2021/12/19 06:07:38;;;;;;;7.37;3.90;;;15.80;82.40;;;;;;1989905;28;20581;-73
2021/12/19 06:08:36;;;;;;;5.53;3.47;;;15.80;82.60;;;;;;1990010;28;20257;-75
2021/12/19 06:09:35;;;;;;;5.33;3.67;;;15.80;82.50;;;;;;1990263;28;20246;-75
2021/12/19 06:10:36;;;;;;;7.40;4.23;;;15.80;82.70;;;;;;1990776;28;20170;-74
2021/12/19 06:11:58;;;;;;;5.72;3.85;;;15.90;82.80;;;;;;1982305;29;20194;-74
2021/12/19 06:12:59;;;;;;;5.13;3.47;;;15.80;82.60;;;;;;1985954;28;20720;-74
2021/12/19 06:13:59;;;;;;;8.85;4.28;;;15.80;82.90;;;;;;1991381;28;20183;-74
2021/12/19 06:14:58;;;;;;;6.20;3.55;;;15.80;82.80;;;;;;1991158;28;20724;-74
2021/12/19 06:15:57;;;;;;;6.50;3.50;;;16.20;83.40;;;;;;1990793;28;20248;-74